Terminal Aerodrome Forecast
Issued by NWS

Home | Current Version | Previous Version | Text Only | Print | Product List | Glossary On
Versions: 1 2 3 4 5 6 7 8 9 10 11 12 13 14 15 16 17 18 19 20 21 22 23 24
000
FTUS43 KDLH 242300
TAFHIB
TAF
KHIB 242336Z 2500/2524 10008KT 1 1/2SM -SN BR OVC006
      TEMPO 2500/2503 3/4SM -SN OVC004
     FM250300 VRB03KT 1 1/2SM -SNDZ BR OVC005
     FM250900 VRB02KT 2SM BR OVC004
     FM251300 33010KT 4SM BR VCSH OVC010
     FM251800 33011KT P6SM BKN015 OVC030=

USA.gov is the U.S. government's official web portal to all federal, state and local government web resources and services.